sensor_id;sensor_type;location;lat;lon;timestamp;P1;durP1;ratioP1;P2;durP2;ratioP2
16304;SDS011;8261;47.678;-122.174;2022-07-10T00:02:24;1.10;;;1.00;;
16304;SDS011;8261;47.678;-122.174;2022-07-10T00:05:35;1.57;;;0.93;;
16304;SDS011;8261;47.678;-122.174;2022-07-10T00:17:23;1.87;;;0.80;;
16304;SDS011;8261;47.678;-122.174;2022-07-10T00:20:08;1.60;;;0.77;;
16304;SDS011;8261;47.678;-122.174;2022-07-10T00:23:08;0.83;;;0.83;;
16304;SDS011;8261;47.678;-122.174;2022-07-10T00:26:09;0.60;;;0.60;;
16304;SDS011;8261;47.678;-122.174;2022-07-10T00:28:59;1.03;;;0.60;;
16304;SDS011;8261;47.678;-122.174;2022-07-10T00:31:56;0.70;;;0.70;;
16304;SDS011;8261;47.678;-122.174;2022-07-10T00:34:46;1.80;;;0.70;;
16304;SDS011;8261;47.678;-122.174;2022-07-10T00:37:18;1.87;;;0.93;;
16304;SDS011;8261;47.678;-122.174;2022-07-10T00:40:18;1.47;;;1.37;;
16304;SDS011;8261;47.678;-122.174;2022-07-10T00:42:53;1.23;;;1.13;;
16304;SDS011;8261;47.678;-122.174;2022-07-10T00:45:25;1.50;;;1.10;;
16304;SDS011;8261;47.678;-122.174;2022-07-10T00:48:12;3.13;;;1.10;;
16304;SDS011;8261;47.678;-122.174;2022-07-10T00:50:52;0.93;;;0.70;;
16304;SDS011;8261;47.678;-122.174;2022-07-10T00:53:26;1.27;;;1.03;;
16304;SDS011;8261;47.678;-122.174;2022-07-10T00:56:00;1.73;;;0.80;;
16304;SDS011;8261;47.678;-122.174;2022-07-10T00:58:32;0.70;;;0.70;;
16304;SDS011;8261;47.678;-122.174;2022-07-10T01:01:12;1.13;;;0.70;;
16304;SDS011;8261;47.678;-122.174;2022-07-10T01:03:47;1.57;;;1.00;;
16304;SDS011;8261;47.678;-122.174;2022-07-10T01:06:27;0.70;;;0.70;;
16304;SDS011;8261;47.678;-122.174;2022-07-10T01:09:01;1.67;;;1.00;;
16304;SDS011;8261;47.678;-122.174;2022-07-10T01:11:33;1.40;;;0.87;;
16304;SDS011;8261;47.678;-122.174;2022-07-10T01:14:12;1.00;;;0.90;;
16304;SDS011;8261;47.678;-122.174;2022-07-10T01:16:55;0.77;;;0.70;;
16304;SDS011;8261;47.678;-122.174;2022-07-10T01:19:27;2.00;;;0.80;;
16304;SDS011;8261;47.678;-122.174;2022-07-10T01:22:01;1.73;;;1.00;;
16304;SDS011;8261;47.678;-122.174;2022-07-10T01:24:33;1.93;;;0.80;;
16304;SDS011;8261;47.678;-122.174;2022-07-10T01:27:06;1.00;;;0.83;;
16304;SDS011;8261;47.678;-122.174;2022-07-10T01:29:41;0.90;;;0.90;;
16304;SDS011;8261;47.678;-122.174;2022-07-10T01:32:14;2.20;;;0.83;;
16304;SDS011;8261;47.678;-122.174;2022-07-10T01:34:46;0.77;;;0.77;;
16304;SDS011;8261;47.678;-122.174;2022-07-10T01:37:42;1.03;;;0.93;;
16304;SDS011;8261;47.678;-122.174;2022-07-10T01:40:16;1.10;;;1.00;;
16304;SDS011;8261;47.678;-122.174;2022-07-10T01:42:52;1.07;;;0.90;;
16304;SDS011;8261;47.678;-122.174;2022-07-10T01:45:27;1.50;;;1.00;;
16304;SDS011;8261;47.678;-122.174;2022-07-10T01:48:17;2.10;;;1.00;;
16304;SDS011;8261;47.678;-122.174;2022-07-10T01:51:03;2.33;;;0.80;;
16304;SDS011;8261;47.678;-122.174;2022-07-10T01:53:58;2.93;;;1.07;;
16304;SDS011;8261;47.678;-122.174;2022-07-10T01:56:49;2.70;;;1.20;;
16304;SDS011;8261;47.678;-122.174;2022-07-10T02:13:25;1.37;;;1.00;;
16304;SDS011;8261;47.678;-122.174;2022-07-10T02:16:11;1.20;;;0.83;;
16304;SDS011;8261;47.678;-122.174;2022-07-10T02:18:44;1.20;;;0.80;;
16304;SDS011;8261;47.678;-122.174;2022-07-10T02:21:31;1.63;;;1.20;;
16304;SDS011;8261;47.678;-122.174;2022-07-10T02:24:32;1.53;;;1.00;;
16304;SDS011;8261;47.678;-122.174;2022-07-10T02:27:24;1.13;;;1.00;;
16304;SDS011;8261;47.678;-122.174;2022-07-10T02:29:59;1.70;;;1.00;;
16304;SDS011;8261;47.678;-122.174;2022-07-10T02:32:34;1.07;;;0.80;;
16304;SDS011;8261;47.678;-122.174;2022-07-10T02:35:20;1.20;;;0.93;;
16304;SDS011;8261;47.678;-122.174;2022-07-10T02:37:53;1.00;;;0.90;;
16304;SDS011;8261;47.678;-122.174;2022-07-10T02:40:40;0.93;;;0.90;;
16304;SDS011;8261;47.678;-122.174;2022-07-10T02:44:17;1.17;;;0.97;;
16304;SDS011;8261;47.678;-122.174;2022-07-10T02:47:03;2.17;;;1.70;;
16304;SDS011;8261;47.678;-122.174;2022-07-10T02:49:39;2.30;;;1.40;;
16304;SDS011;8261;47.678;-122.174;2022-07-10T03:12:04;5.77;;;2.70;;
16304;SDS011;8261;47.678;-122.174;2022-07-10T03:14:49;1.03;;;0.90;;
16304;SDS011;8261;47.678;-122.174;2022-07-10T03:17:37;1.20;;;0.90;;
16304;SDS011;8261;47.678;-122.174;2022-07-10T03:20:15;1.53;;;1.00;;
16304;SDS011;8261;47.678;-122.174;2022-07-10T03:22:52;1.33;;;0.97;;
16304;SDS011;8261;47.678;-122.174;2022-07-10T03:25:30;1.17;;;0.97;;
16304;SDS011;8261;47.678;-122.174;2022-07-10T03:31:09;1.13;;;1.03;;
16304;SDS011;8261;47.678;-122.174;2022-07-10T03:33:49;2.30;;;1.40;;
16304;SDS011;8261;47.678;-122.174;2022-07-10T03:36:34;1.17;;;1.07;;
16304;SDS011;8261;47.678;-122.174;2022-07-10T03:39:07;1.83;;;1.27;;
16304;SDS011;8261;47.678;-122.174;2022-07-10T03:41:41;1.27;;;0.87;;
16304;SDS011;8261;47.678;-122.174;2022-07-10T03:44:16;1.10;;;1.10;;
16304;SDS011;8261;47.678;-122.174;2022-07-10T03:46:53;1.40;;;1.07;;
16304;SDS011;8261;47.678;-122.174;2022-07-10T03:49:29;1.00;;;0.90;;
16304;SDS011;8261;47.678;-122.174;2022-07-10T03:52:08;1.30;;;0.87;;
16304;SDS011;8261;47.678;-122.174;2022-07-10T03:54:55;1.33;;;1.00;;
16304;SDS011;8261;47.678;-122.174;2022-07-10T03:57:36;1.27;;;0.90;;
16304;SDS011;8261;47.678;-122.174;2022-07-10T04:03:30;0.77;;;0.73;;
16304;SDS011;8261;47.678;-122.174;2022-07-10T04:06:21;1.67;;;0.87;;
16304;SDS011;8261;47.678;-122.174;2022-07-10T04:09:20;1.00;;;0.90;;
16304;SDS011;8261;47.678;-122.174;2022-07-10T04:11:59;2.10;;;0.90;;
16304;SDS011;8261;47.678;-122.174;2022-07-10T04:15:04;1.63;;;0.90;;
16304;SDS011;8261;47.678;-122.174;2022-07-10T04:17:46;0.87;;;0.87;;
16304;SDS011;8261;47.678;-122.174;2022-07-10T04:20:24;1.40;;;0.90;;
16304;SDS011;8261;47.678;-122.174;2022-07-10T04:22:56;2.07;;;0.90;;
16304;SDS011;8261;47.678;-122.174;2022-07-10T04:25:31;0.80;;;0.70;;
16304;SDS011;8261;47.678;-122.174;2022-07-10T04:28:04;2.03;;;0.90;;
16304;SDS011;8261;47.678;-122.174;2022-07-10T04:30:44;0.90;;;0.63;;
16304;SDS011;8261;47.678;-122.174;2022-07-10T04:33:17;0.80;;;0.80;;
16304;SDS011;8261;47.678;-122.174;2022-07-10T04:35:54;0.53;;;0.53;;
16304;SDS011;8261;47.678;-122.174;2022-07-10T04:38:25;1.00;;;0.90;;
16304;SDS011;8261;47.678;-122.174;2022-07-10T04:41:24;0.93;;;0.70;;
16304;SDS011;8261;47.678;-122.174;2022-07-10T04:44:08;1.07;;;0.60;;
16304;SDS011;8261;47.678;-122.174;2022-07-10T04:46:43;1.70;;;0.80;;
16304;SDS011;8261;47.678;-122.174;2022-07-10T04:49:21;1.33;;;0.70;;
16304;SDS011;8261;47.678;-122.174;2022-07-10T04:55:04;0.90;;;0.67;;
16304;SDS011;8261;47.678;-122.174;2022-07-10T04:57:42;1.07;;;0.70;;
16304;SDS011;8261;47.678;-122.174;2022-07-10T05:00:15;0.80;;;0.80;;
16304;SDS011;8261;47.678;-122.174;2022-07-10T05:02:49;0.80;;;0.80;;
16304;SDS011;8261;47.678;-122.174;2022-07-10T05:05:21;2.80;;;0.80;;
16304;SDS011;8261;47.678;-122.174;2022-07-10T05:08:10;2.77;;;0.90;;
16304;SDS011;8261;47.678;-122.174;2022-07-10T05:22:10;1.63;;;1.03;;
16304;SDS011;8261;47.678;-122.174;2022-07-10T05:28:38;1.03;;;0.80;;
16304;SDS011;8261;47.678;-122.174;2022-07-10T05:33:59;2.50;;;0.93;;
16304;SDS011;8261;47.678;-122.174;2022-07-10T05:36:51;1.90;;;1.00;;
16304;SDS011;8261;47.678;-122.174;2022-07-10T05:39:23;2.60;;;0.97;;
16304;SDS011;8261;47.678;-122.174;2022-07-10T05:41:56;5.50;;;1.27;;
16304;SDS011;8261;47.678;-122.174;2022-07-10T05:44:38;1.23;;;1.00;;
16304;SDS011;8261;47.678;-122.174;2022-07-10T05:47:26;3.57;;;1.17;;
16304;SDS011;8261;47.678;-122.174;2022-07-10T05:50:07;1.83;;;0.90;;
16304;SDS011;8261;47.678;-122.174;2022-07-10T05:52:45;1.83;;;1.10;;
16304;SDS011;8261;47.678;-122.174;2022-07-10T05:55:33;0.70;;;0.70;;
16304;SDS011;8261;47.678;-122.174;2022-07-10T05:58:08;1.63;;;0.90;;
16304;SDS011;8261;47.678;-122.174;2022-07-10T06:00:55;1.03;;;0.93;;
16304;SDS011;8261;47.678;-122.174;2022-07-10T06:03:40;1.33;;;0.90;;
16304;SDS011;8261;47.678;-122.174;2022-07-10T06:06:31;1.10;;;1.00;;
16304;SDS011;8261;47.678;-122.174;2022-07-10T06:09:17;1.00;;;0.90;;
16304;SDS011;8261;47.678;-122.174;2022-07-10T06:11:48;1.20;;;1.10;;
16304;SDS011;8261;47.678;-122.174;2022-07-10T06:14:25;2.43;;;1.00;;
16304;SDS011;8261;47.678;-122.174;2022-07-10T06:20:00;1.33;;;0.90;;
16304;SDS011;8261;47.678;-122.174;2022-07-10T06:22:46;1.90;;;1.20;;
16304;SDS011;8261;47.678;-122.174;2022-07-10T06:25:21;0.83;;;0.80;;
16304;SDS011;8261;47.678;-122.174;2022-07-10T06:27:59;1.47;;;1.03;;
16304;SDS011;8261;47.678;-122.174;2022-07-10T06:30:53;1.27;;;0.90;;
16304;SDS011;8261;47.678;-122.174;2022-07-10T06:33:40;1.10;;;1.00;;
16304;SDS011;8261;47.678;-122.174;2022-07-10T06:36:16;1.47;;;1.10;;
16304;SDS011;8261;47.678;-122.174;2022-07-10T06:39:01;1.93;;;1.13;;
16304;SDS011;8261;47.678;-122.174;2022-07-10T06:41:45;1.73;;;1.00;;
16304;SDS011;8261;47.678;-122.174;2022-07-10T06:44:21;1.37;;;0.90;;
16304;SDS011;8261;47.678;-122.174;2022-07-10T06:46:53;1.50;;;1.00;;
16304;SDS011;8261;47.678;-122.174;2022-07-10T06:49:58;3.73;;;1.30;;
16304;SDS011;8261;47.678;-122.174;2022-07-10T06:52:52;1.17;;;0.87;;
16304;SDS011;8261;47.678;-122.174;2022-07-10T06:55:27;1.50;;;1.03;;
16304;SDS011;8261;47.678;-122.174;2022-07-10T06:58:00;1.27;;;1.17;;
16304;SDS011;8261;47.678;-122.174;2022-07-10T07:00:45;1.07;;;0.77;;
16304;SDS011;8261;47.678;-122.174;2022-07-10T07:03:36;0.97;;;0.90;;
16304;SDS011;8261;47.678;-122.174;2022-07-10T07:06:38;1.33;;;0.90;;
16304;SDS011;8261;47.678;-122.174;2022-07-10T07:09:11;1.63;;;1.00;;
16304;SDS011;8261;47.678;-122.174;2022-07-10T07:11:43;1.83;;;1.07;;
16304;SDS011;8261;47.678;-122.174;2022-07-10T07:14:40;1.50;;;0.90;;
16304;SDS011;8261;47.678;-122.174;2022-07-10T07:17:24;1.00;;;0.90;;
16304;SDS011;8261;47.678;-122.174;2022-07-10T07:20:10;1.10;;;0.80;;
16304;SDS011;8261;47.678;-122.174;2022-07-10T07:23:10;1.10;;;0.80;;
16304;SDS011;8261;47.678;-122.174;2022-07-10T07:25:42;1.57;;;0.80;;
16304;SDS011;8261;47.678;-122.174;2022-07-10T07:28:15;0.93;;;0.90;;
16304;SDS011;8261;47.678;-122.174;2022-07-10T07:30:49;1.17;;;0.73;;
16304;SDS011;8261;47.678;-122.174;2022-07-10T07:33:41;0.90;;;0.90;;
16304;SDS011;8261;47.678;-122.174;2022-07-10T07:36:13;3.53;;;1.00;;
16304;SDS011;8261;47.678;-122.174;2022-07-10T07:38:47;1.03;;;0.93;;
16304;SDS011;8261;47.678;-122.174;2022-07-10T07:41:20;1.10;;;1.00;;
16304;SDS011;8261;47.678;-122.174;2022-07-10T07:43:52;1.07;;;1.00;;
16304;SDS011;8261;47.678;-122.174;2022-07-10T07:46:24;1.50;;;1.13;;
16304;SDS011;8261;47.678;-122.174;2022-07-10T07:48:57;1.13;;;0.90;;
16304;SDS011;8261;47.678;-122.174;2022-07-10T07:51:31;1.07;;;0.90;;
16304;SDS011;8261;47.678;-122.174;2022-07-10T07:54:06;1.23;;;1.03;;
16304;SDS011;8261;47.678;-122.174;2022-07-10T07:56:38;1.67;;;0.80;;
16304;SDS011;8261;47.678;-122.174;2022-07-10T07:59:12;1.20;;;0.90;;
16304;SDS011;8261;47.678;-122.174;2022-07-10T08:01:44;0.63;;;0.63;;
16304;SDS011;8261;47.678;-122.174;2022-07-10T08:04:18;0.73;;;0.70;;
16304;SDS011;8261;47.678;-122.174;2022-07-10T08:06:57;1.43;;;0.80;;
16304;SDS011;8261;47.678;-122.174;2022-07-10T08:09:37;2.47;;;0.80;;
16304;SDS011;8261;47.678;-122.174;2022-07-10T08:12:08;2.03;;;0.80;;
16304;SDS011;8261;47.678;-122.174;2022-07-10T08:14:42;0.97;;;0.77;;
16304;SDS011;8261;47.678;-122.174;2022-07-10T08:22:40;1.23;;;0.83;;
16304;SDS011;8261;47.678;-122.174;2022-07-10T08:25:40;1.83;;;1.20;;
16304;SDS011;8261;47.678;-122.174;2022-07-10T08:28:12;1.53;;;0.80;;
16304;SDS011;8261;47.678;-122.174;2022-07-10T08:30:49;1.80;;;0.87;;
16304;SDS011;8261;47.678;-122.174;2022-07-10T08:33:23;1.07;;;0.80;;
16304;SDS011;8261;47.678;-122.174;2022-07-10T08:36:13;1.10;;;0.90;;
16304;SDS011;8261;47.678;-122.174;2022-07-10T08:39:06;0.80;;;0.77;;
16304;SDS011;8261;47.678;-122.174;2022-07-10T08:41:40;1.23;;;0.90;;
16304;SDS011;8261;47.678;-122.174;2022-07-10T08:44:18;1.77;;;0.70;;
16304;SDS011;8261;47.678;-122.174;2022-07-10T08:46:49;2.57;;;0.97;;
16304;SDS011;8261;47.678;-122.174;2022-07-10T08:49:26;2.47;;;1.00;;
16304;SDS011;8261;47.678;-122.174;2022-07-10T08:52:04;0.80;;;0.80;;
16304;SDS011;8261;47.678;-122.174;2022-07-10T08:54:39;0.70;;;0.63;;
16304;SDS011;8261;47.678;-122.174;2022-07-10T08:57:15;1.00;;;0.90;;
16304;SDS011;8261;47.678;-122.174;2022-07-10T08:59:48;0.63;;;0.63;;
16304;SDS011;8261;47.678;-122.174;2022-07-10T09:02:19;1.17;;;0.80;;
16304;SDS011;8261;47.678;-122.174;2022-07-10T09:04:51;1.83;;;0.80;;
16304;SDS011;8261;47.678;-122.174;2022-07-10T09:07:23;1.67;;;0.90;;
16304;SDS011;8261;47.678;-122.174;2022-07-10T09:10:07;1.27;;;1.00;;
16304;SDS011;8261;47.678;-122.174;2022-07-10T09:15:32;1.47;;;0.70;;
16304;SDS011;8261;47.678;-122.174;2022-07-10T09:18:05;1.57;;;1.00;;
16304;SDS011;8261;47.678;-122.174;2022-07-10T09:20:37;1.13;;;0.93;;
16304;SDS011;8261;47.678;-122.174;2022-07-10T09:23:14;1.57;;;0.90;;
16304;SDS011;8261;47.678;-122.174;2022-07-10T09:25:46;1.17;;;0.90;;
16304;SDS011;8261;47.678;-122.174;2022-07-10T09:28:50;1.03;;;1.00;;
16304;SDS011;8261;47.678;-122.174;2022-07-10T09:37:19;1.43;;;1.13;;
16304;SDS011;8261;47.678;-122.174;2022-07-10T09:39:53;1.07;;;0.97;;
16304;SDS011;8261;47.678;-122.174;2022-07-10T09:42:26;0.90;;;0.80;;
16304;SDS011;8261;47.678;-122.174;2022-07-10T09:47:56;1.53;;;1.00;;
16304;SDS011;8261;47.678;-122.174;2022-07-10T09:50:33;0.70;;;0.70;;
16304;SDS011;8261;47.678;-122.174;2022-07-10T09:53:07;1.60;;;1.10;;
16304;SDS011;8261;47.678;-122.174;2022-07-10T09:55:39;2.00;;;1.00;;
16304;SDS011;8261;47.678;-122.174;2022-07-10T09:58:11;1.57;;;1.00;;
16304;SDS011;8261;47.678;-122.174;2022-07-10T10:00:47;0.93;;;0.83;;
16304;SDS011;8261;47.678;-122.174;2022-07-10T10:03:21;1.60;;;1.13;;
16304;SDS011;8261;47.678;-122.174;2022-07-10T10:05:58;1.60;;;1.23;;
16304;SDS011;8261;47.678;-122.174;2022-07-10T10:08:35;1.33;;;1.00;;
16304;SDS011;8261;47.678;-122.174;2022-07-10T10:11:15;2.30;;;1.20;;
16304;SDS011;8261;47.678;-122.174;2022-07-10T10:13:49;1.37;;;0.90;;
16304;SDS011;8261;47.678;-122.174;2022-07-10T10:16:24;1.90;;;1.03;;
16304;SDS011;8261;47.678;-122.174;2022-07-10T10:19:03;1.27;;;1.10;;
16304;SDS011;8261;47.678;-122.174;2022-07-10T10:21:53;1.17;;;1.00;;
16304;SDS011;8261;47.678;-122.174;2022-07-10T10:24:41;1.33;;;0.90;;
16304;SDS011;8261;47.678;-122.174;2022-07-10T10:27:15;1.20;;;1.10;;
16304;SDS011;8261;47.678;-122.174;2022-07-10T10:29:48;2.00;;;1.17;;
16304;SDS011;8261;47.678;-122.174;2022-07-10T10:32:27;1.57;;;1.00;;
16304;SDS011;8261;47.678;-122.174;2022-07-10T10:35:00;1.73;;;1.30;;
16304;SDS011;8261;47.678;-122.174;2022-07-10T10:37:34;1.37;;;1.07;;
16304;SDS011;8261;47.678;-122.174;2022-07-10T10:40:29;2.63;;;1.30;;
16304;SDS011;8261;47.678;-122.174;2022-07-10T10:43:19;1.43;;;1.20;;
16304;SDS011;8261;47.678;-122.174;2022-07-10T10:45:52;1.30;;;1.10;;
16304;SDS011;8261;47.678;-122.174;2022-07-10T10:48:27;1.50;;;1.30;;
16304;SDS011;8261;47.678;-122.174;2022-07-10T10:51:04;1.83;;;1.40;;
16304;SDS011;8261;47.678;-122.174;2022-07-10T10:53:36;1.47;;;1.10;;
16304;SDS011;8261;47.678;-122.174;2022-07-10T10:56:24;1.33;;;1.20;;
16304;SDS011;8261;47.678;-122.174;2022-07-10T10:58:57;2.20;;;1.40;;
16304;SDS011;8261;47.678;-122.174;2022-07-10T11:01:29;1.93;;;1.40;;
16304;SDS011;8261;47.678;-122.174;2022-07-10T11:04:15;4.47;;;1.13;;
16304;SDS011;8261;47.678;-122.174;2022-07-10T11:06:50;1.37;;;1.27;;
16304;SDS011;8261;47.678;-122.174;2022-07-10T11:09:27;1.47;;;1.23;;
16304;SDS011;8261;47.678;-122.174;2022-07-10T11:11:59;2.00;;;1.50;;
16304;SDS011;8261;47.678;-122.174;2022-07-10T11:14:35;1.50;;;1.40;;
16304;SDS011;8261;47.678;-122.174;2022-07-10T11:17:08;3.13;;;1.50;;
16304;SDS011;8261;47.678;-122.174;2022-07-10T11:19:41;2.07;;;1.30;;
16304;SDS011;8261;47.678;-122.174;2022-07-10T11:22:17;1.57;;;1.40;;
16304;SDS011;8261;47.678;-122.174;2022-07-10T11:25:14;1.30;;;1.20;;
16304;SDS011;8261;47.678;-122.174;2022-07-10T11:28:02;2.07;;;1.30;;
16304;SDS011;8261;47.678;-122.174;2022-07-10T11:30:44;1.30;;;1.20;;
16304;SDS011;8261;47.678;-122.174;2022-07-10T11:33:17;1.47;;;1.37;;
16304;SDS011;8261;47.678;-122.174;2022-07-10T11:35:54;1.70;;;1.60;;
16304;SDS011;8261;47.678;-122.174;2022-07-10T11:38:31;1.93;;;1.40;;
16304;SDS011;8261;47.678;-122.174;2022-07-10T11:41:04;1.60;;;1.37;;
16304;SDS011;8261;47.678;-122.174;2022-07-10T11:43:49;3.17;;;1.30;;
16304;SDS011;8261;47.678;-122.174;2022-07-10T11:46:21;1.40;;;1.20;;
16304;SDS011;8261;47.678;-122.174;2022-07-10T11:49:03;1.80;;;1.23;;
16304;SDS011;8261;47.678;-122.174;2022-07-10T11:51:40;1.40;;;1.30;;
16304;SDS011;8261;47.678;-122.174;2022-07-10T11:54:13;1.43;;;1.30;;
16304;SDS011;8261;47.678;-122.174;2022-07-10T11:56:49;1.40;;;1.30;;
16304;SDS011;8261;47.678;-122.174;2022-07-10T11:59:23;1.60;;;1.50;;
16304;SDS011;8261;47.678;-122.174;2022-07-10T12:01:56;1.97;;;1.40;;
16304;SDS011;8261;47.678;-122.174;2022-07-10T12:04:29;1.40;;;1.30;;
16304;SDS011;8261;47.678;-122.174;2022-07-10T12:07:03;1.43;;;1.33;;
16304;SDS011;8261;47.678;-122.174;2022-07-10T12:09:34;1.40;;;1.30;;
16304;SDS011;8261;47.678;-122.174;2022-07-10T12:12:08;1.63;;;1.37;;
16304;SDS011;8261;47.678;-122.174;2022-07-10T12:14:39;1.53;;;1.43;;
16304;SDS011;8261;47.678;-122.174;2022-07-10T12:17:11;1.50;;;1.40;;
16304;SDS011;8261;47.678;-122.174;2022-07-10T12:19:44;2.13;;;1.30;;
16304;SDS011;8261;47.678;-122.174;2022-07-10T12:22:21;1.80;;;1.40;;
16304;SDS011;8261;47.678;-122.174;2022-07-10T12:24:53;1.40;;;1.30;;
16304;SDS011;8261;47.678;-122.174;2022-07-10T12:27:40;4.67;;;1.70;;
16304;SDS011;8261;47.678;-122.174;2022-07-10T12:30:18;1.40;;;1.30;;
16304;SDS011;8261;47.678;-122.174;2022-07-10T12:32:51;1.50;;;1.40;;
16304;SDS011;8261;47.678;-122.174;2022-07-10T12:35:24;2.17;;;1.47;;
16304;SDS011;8261;47.678;-122.174;2022-07-10T12:37:56;1.60;;;1.50;;
16304;SDS011;8261;47.678;-122.174;2022-07-10T12:40:29;2.23;;;2.00;;
16304;SDS011;8261;47.678;-122.174;2022-07-10T12:43:06;1.80;;;1.70;;
16304;SDS011;8261;47.678;-122.174;2022-07-10T12:45:39;1.90;;;1.47;;
16304;SDS011;8261;47.678;-122.174;2022-07-10T12:48:20;2.10;;;1.70;;
16304;SDS011;8261;47.678;-122.174;2022-07-10T12:50:53;1.60;;;1.50;;
16304;SDS011;8261;47.678;-122.174;2022-07-10T12:53:30;2.30;;;1.70;;
16304;SDS011;8261;47.678;-122.174;2022-07-10T12:56:01;2.47;;;1.77;;
16304;SDS011;8261;47.678;-122.174;2022-07-10T12:58:32;1.70;;;1.60;;
16304;SDS011;8261;47.678;-122.174;2022-07-10T13:01:04;2.27;;;1.80;;
16304;SDS011;8261;47.678;-122.174;2022-07-10T13:03:36;1.93;;;1.40;;
16304;SDS011;8261;47.678;-122.174;2022-07-10T13:06:34;2.37;;;1.50;;
16304;SDS011;8261;47.678;-122.174;2022-07-10T13:09:20;1.83;;;1.40;;
16304;SDS011;8261;47.678;-122.174;2022-07-10T13:11:53;2.07;;;1.87;;
16304;SDS011;8261;47.678;-122.174;2022-07-10T13:14:25;1.97;;;1.70;;
16304;SDS011;8261;47.678;-122.174;2022-07-10T13:16:58;1.80;;;1.70;;
16304;SDS011;8261;47.678;-122.174;2022-07-10T13:19:31;2.87;;;1.80;;
16304;SDS011;8261;47.678;-122.174;2022-07-10T13:22:02;4.63;;;1.90;;
16304;SDS011;8261;47.678;-122.174;2022-07-10T13:24:37;1.77;;;1.67;;
16304;SDS011;8261;47.678;-122.174;2022-07-10T13:27:09;1.60;;;1.50;;
16304;SDS011;8261;47.678;-122.174;2022-07-10T13:29:42;1.70;;;1.60;;
16304;SDS011;8261;47.678;-122.174;2022-07-10T13:32:17;1.57;;;1.47;;
16304;SDS011;8261;47.678;-122.174;2022-07-10T13:34:56;2.60;;;1.60;;
16304;SDS011;8261;47.678;-122.174;2022-07-10T13:37:28;1.50;;;1.40;;
16304;SDS011;8261;47.678;-122.174;2022-07-10T13:40:09;1.70;;;1.60;;
16304;SDS011;8261;47.678;-122.174;2022-07-10T13:42:45;1.93;;;1.27;;
16304;SDS011;8261;47.678;-122.174;2022-07-10T13:45:18;1.73;;;1.63;;
16304;SDS011;8261;47.678;-122.174;2022-07-10T13:47:53;2.43;;;1.37;;
16304;SDS011;8261;47.678;-122.174;2022-07-10T13:50:30;1.83;;;1.40;;
16304;SDS011;8261;47.678;-122.174;2022-07-10T13:53:05;3.40;;;1.50;;
16304;SDS011;8261;47.678;-122.174;2022-07-10T13:55:41;1.50;;;1.40;;
16304;SDS011;8261;47.678;-122.174;2022-07-10T13:58:14;1.57;;;1.47;;
16304;SDS011;8261;47.678;-122.174;2022-07-10T14:00:46;1.80;;;1.57;;
16304;SDS011;8261;47.678;-122.174;2022-07-10T14:03:18;1.73;;;1.50;;
16304;SDS011;8261;47.678;-122.174;2022-07-10T14:06:19;1.63;;;1.53;;
16304;SDS011;8261;47.678;-122.174;2022-07-10T14:09:15;1.67;;;1.43;;
16304;SDS011;8261;47.678;-122.174;2022-07-10T14:11:53;1.60;;;1.50;;
16304;SDS011;8261;47.678;-122.174;2022-07-10T14:14:26;1.57;;;1.30;;
16304;SDS011;8261;47.678;-122.174;2022-07-10T14:16:58;3.57;;;1.67;;
16304;SDS011;8261;47.678;-122.174;2022-07-10T14:19:32;1.60;;;1.50;;
16304;SDS011;8261;47.678;-122.174;2022-07-10T14:22:04;1.47;;;1.37;;
16304;SDS011;8261;47.678;-122.174;2022-07-10T14:24:36;1.30;;;1.20;;
16304;SDS011;8261;47.678;-122.174;2022-07-10T14:27:09;1.20;;;1.20;;
16304;SDS011;8261;47.678;-122.174;2022-07-10T14:29:41;2.63;;;1.40;;
16304;SDS011;8261;47.678;-122.174;2022-07-10T14:32:13;1.60;;;1.50;;
16304;SDS011;8261;47.678;-122.174;2022-07-10T14:34:47;2.77;;;1.40;;
16304;SDS011;8261;47.678;-122.174;2022-07-10T14:37:18;1.83;;;1.63;;
16304;SDS011;8261;47.678;-122.174;2022-07-10T14:39:50;1.73;;;1.33;;
16304;SDS011;8261;47.678;-122.174;2022-07-10T14:42:26;1.37;;;1.27;;
16304;SDS011;8261;47.678;-122.174;2022-07-10T14:44:58;1.70;;;1.60;;
16304;SDS011;8261;47.678;-122.174;2022-07-10T14:47:50;2.07;;;1.53;;
16304;SDS011;8261;47.678;-122.174;2022-07-10T14:50:24;2.23;;;1.60;;
16304;SDS011;8261;47.678;-122.174;2022-07-10T14:52:56;1.60;;;1.50;;
16304;SDS011;8261;47.678;-122.174;2022-07-10T14:55:29;1.83;;;1.50;;
16304;SDS011;8261;47.678;-122.174;2022-07-10T14:58:03;2.10;;;1.90;;
16304;SDS011;8261;47.678;-122.174;2022-07-10T15:00:37;1.80;;;1.70;;
16304;SDS011;8261;47.678;-122.174;2022-07-10T15:03:16;1.70;;;1.60;;
16304;SDS011;8261;47.678;-122.174;2022-07-10T15:05:47;1.50;;;1.40;;
16304;SDS011;8261;47.678;-122.174;2022-07-10T15:11:19;1.43;;;1.33;;
16304;SDS011;8261;47.678;-122.174;2022-07-10T15:13:56;1.30;;;1.20;;
16304;SDS011;8261;47.678;-122.174;2022-07-10T15:16:32;1.50;;;1.40;;
16304;SDS011;8261;47.678;-122.174;2022-07-10T15:19:08;1.60;;;1.50;;
16304;SDS011;8261;47.678;-122.174;2022-07-10T15:21:40;1.50;;;1.40;;
16304;SDS011;8261;47.678;-122.174;2022-07-10T15:24:11;1.50;;;1.40;;
16304;SDS011;8261;47.678;-122.174;2022-07-10T15:26:42;1.50;;;1.40;;
16304;SDS011;8261;47.678;-122.174;2022-07-10T15:29:19;1.57;;;1.47;;
16304;SDS011;8261;47.678;-122.174;2022-07-10T15:31:53;1.50;;;1.40;;
16304;SDS011;8261;47.678;-122.174;2022-07-10T15:34:25;1.90;;;1.47;;
16304;SDS011;8261;47.678;-122.174;2022-07-10T15:36:59;1.50;;;1.40;;
16304;SDS011;8261;47.678;-122.174;2022-07-10T15:39:32;1.50;;;1.40;;
16304;SDS011;8261;47.678;-122.174;2022-07-10T15:42:11;1.80;;;1.70;;
16304;SDS011;8261;47.678;-122.174;2022-07-10T15:44:44;1.60;;;1.50;;
16304;SDS011;8261;47.678;-122.174;2022-07-10T15:47:17;2.27;;;1.40;;
16304;SDS011;8261;47.678;-122.174;2022-07-10T15:49:49;1.80;;;1.53;;
16304;SDS011;8261;47.678;-122.174;2022-07-10T15:52:20;1.60;;;1.50;;
16304;SDS011;8261;47.678;-122.174;2022-07-10T15:54:52;1.43;;;1.33;;
16304;SDS011;8261;47.678;-122.174;2022-07-10T15:57:25;1.50;;;1.40;;
16304;SDS011;8261;47.678;-122.174;2022-07-10T16:00:02;2.27;;;1.67;;
16304;SDS011;8261;47.678;-122.174;2022-07-10T16:02:38;2.23;;;1.87;;
16304;SDS011;8261;47.678;-122.174;2022-07-10T16:05:28;1.60;;;1.50;;
16304;SDS011;8261;47.678;-122.174;2022-07-10T16:08:26;1.50;;;1.40;;
16304;SDS011;8261;47.678;-122.174;2022-07-10T16:11:17;1.80;;;1.70;;
16304;SDS011;8261;47.678;-122.174;2022-07-10T16:16:55;1.90;;;1.80;;
16304;SDS011;8261;47.678;-122.174;2022-07-10T16:19:29;1.83;;;1.73;;
16304;SDS011;8261;47.678;-122.174;2022-07-10T16:22:06;1.97;;;1.70;;
16304;SDS011;8261;47.678;-122.174;2022-07-10T16:24:40;2.80;;;1.90;;
16304;SDS011;8261;47.678;-122.174;2022-07-10T16:27:24;1.93;;;1.80;;
16304;SDS011;8261;47.678;-122.174;2022-07-10T16:29:56;1.80;;;1.70;;
16304;SDS011;8261;47.678;-122.174;2022-07-10T16:32:29;1.93;;;1.83;;
16304;SDS011;8261;47.678;-122.174;2022-07-10T16:35:02;1.70;;;1.60;;
16304;SDS011;8261;47.678;-122.174;2022-07-10T16:37:36;1.63;;;1.50;;
16304;SDS011;8261;47.678;-122.174;2022-07-10T16:40:08;2.70;;;2.00;;
16304;SDS011;8261;47.678;-122.174;2022-07-10T16:42:41;2.00;;;1.90;;
16304;SDS011;8261;47.678;-122.174;2022-07-10T16:45:16;2.23;;;2.03;;
16304;SDS011;8261;47.678;-122.174;2022-07-10T16:48:28;4.10;;;1.97;;
16304;SDS011;8261;47.678;-122.174;2022-07-10T16:51:01;2.33;;;2.13;;
16304;SDS011;8261;47.678;-122.174;2022-07-10T16:53:42;3.20;;;2.33;;
16304;SDS011;8261;47.678;-122.174;2022-07-10T16:56:29;1.70;;;1.60;;
16304;SDS011;8261;47.678;-122.174;2022-07-10T16:59:18;2.73;;;2.30;;
16304;SDS011;8261;47.678;-122.174;2022-07-10T17:02:21;1.77;;;1.67;;
16304;SDS011;8261;47.678;-122.174;2022-07-10T17:05:00;2.83;;;2.17;;